sensor_id;sensor_type;location;lat;lon;timestamp;pressure;altitude;pressure_sealevel;temperature;humidity
64243;BME280;50573;51.512;5.386;2023-11-21T00:00:45;166546.13;;;7.58;100.00
64243;BME280;50573;51.512;5.386;2023-11-21T00:10:48;166460.16;;;7.26;100.00
64243;BME280;50573;51.512;5.386;2023-11-21T00:20:54;166404.63;;;7.04;100.00
64243;BME280;50573;51.512;5.386;2023-11-21T00:30:57;166337.22;;;6.79;100.00
64243;BME280;50573;51.512;5.386;2023-11-21T00:41:01;166292.25;;;6.62;100.00
64243;BME280;50573;51.512;5.386;2023-11-21T00:51:05;166243.38;;;6.43;100.00
64243;BME280;50573;51.512;5.386;2023-11-21T01:01:10;166209.00;;;6.30;100.00
64243;BME280;50573;51.512;5.386;2023-11-21T01:11:13;166160.09;;;6.12;100.00
64243;BME280;50573;51.512;5.386;2023-11-21T01:21:18;166157.47;;;6.11;100.00
64243;BME280;50573;51.512;5.386;2023-11-21T01:31:21;166142.91;;;6.05;100.00
64243;BME280;50573;51.512;5.386;2023-11-21T01:41:26;166168.00;;;6.15;100.00
64243;BME280;50573;51.512;5.386;2023-11-21T01:51:30;166153.50;;;6.09;100.00
64243;BME280;50573;51.512;5.386;2023-11-21T02:01:34;166154.78;;;6.10;100.00
64243;BME280;50573;51.512;5.386;2023-11-21T02:11:37;166164.03;;;6.13;100.00
64243;BME280;50573;51.512;5.386;2023-11-21T02:21:42;166183.91;;;6.21;100.00
64243;BME280;50573;51.512;5.386;2023-11-21T02:31:49;166174.66;;;6.17;100.00
64243;BME280;50573;51.512;5.386;2023-11-21T02:41:53;166161.44;;;6.12;100.00
64243;BME280;50573;51.512;5.386;2023-11-21T02:51:57;166160.09;;;6.12;100.00
64243;BME280;50573;51.512;5.386;2023-11-21T03:02:01;166168.00;;;6.15;100.00
64243;BME280;50573;51.512;5.386;2023-11-21T03:12:06;166160.09;;;6.12;100.00
64243;BME280;50573;51.512;5.386;2023-11-21T03:22:10;166129.69;;;6.00;100.00
64243;BME280;50573;51.512;5.386;2023-11-21T03:32:15;166100.63;;;5.89;100.00
64243;BME280;50573;51.512;5.386;2023-11-21T03:42:18;166054.34;;;5.72;100.00
64243;BME280;50573;51.512;5.386;2023-11-21T03:52:22;166067.56;;;5.77;100.00
64243;BME280;50573;51.512;5.386;2023-11-21T04:02:25;166096.69;;;5.88;100.00
64243;BME280;50573;51.512;5.386;2023-11-21T04:12:31;166127.06;;;5.99;100.00
64243;BME280;50573;51.512;5.386;2023-11-21T04:22:34;166162.75;;;6.13;100.00
64243;BME280;50573;51.512;5.386;2023-11-21T04:32:40;166181.22;;;6.20;100.00
64243;BME280;50573;51.512;5.386;2023-11-21T04:42:43;166207.66;;;6.30;100.00
64243;BME280;50573;51.512;5.386;2023-11-21T04:52:48;166231.44;;;6.39;100.00
64243;BME280;50573;51.512;5.386;2023-11-21T05:02:51;166248.63;;;6.45;100.00
64243;BME280;50573;51.512;5.386;2023-11-21T05:12:56;166265.78;;;6.52;100.00
64243;BME280;50573;51.512;5.386;2023-11-21T05:23:00;166318.69;;;6.72;100.00
64243;BME280;50573;51.512;5.386;2023-11-21T05:33:04;166346.41;;;6.82;100.00
64243;BME280;50573;51.512;5.386;2023-11-21T05:43:07;166387.44;;;6.98;100.00
64243;BME280;50573;51.512;5.386;2023-11-21T05:53:12;166400.66;;;7.03;100.00
64243;BME280;50573;51.512;5.386;2023-11-21T06:03:17;166417.84;;;7.10;100.00
64243;BME280;50573;51.512;5.386;2023-11-21T06:13:22;166446.94;;;7.21;100.00
64243;BME280;50573;51.512;5.386;2023-11-21T06:23:26;166453.53;;;7.23;100.00
64243;BME280;50573;51.512;5.386;2023-11-21T06:33:31;166477.34;;;7.32;100.00
64243;BME280;50573;51.512;5.386;2023-11-21T06:43:34;166498.50;;;7.40;100.00
64243;BME280;50573;51.512;5.386;2023-11-21T06:53:39;166522.28;;;7.49;100.00
64243;BME280;50573;51.512;5.386;2023-11-21T07:03:42;166539.50;;;7.56;100.00
64243;BME280;50573;51.512;5.386;2023-11-21T07:13:47;166552.72;;;7.61;100.00
64243;BME280;50573;51.512;5.386;2023-11-21T07:23:50;166576.56;;;7.70;100.00
64243;BME280;50573;51.512;5.386;2023-11-21T07:33:55;166596.38;;;7.77;100.00
64243;BME280;50573;51.512;5.386;2023-11-21T07:43:59;166632.13;;;7.91;100.00
64243;BME280;50573;51.512;5.386;2023-11-21T07:54:04;166632.13;;;7.91;100.00
64243;BME280;50573;51.512;5.386;2023-11-21T08:04:07;166659.88;;;8.01;100.00
64243;BME280;50573;51.512;5.386;2023-11-21T08:14:11;166723.44;;;8.25;100.00
64243;BME280;50573;51.512;5.386;2023-11-21T08:24:14;166743.31;;;8.33;100.00
64243;BME280;50573;51.512;5.386;2023-11-21T08:34:21;166805.50;;;8.57;100.00
64243;BME280;50573;51.512;5.386;2023-11-21T08:44:34;166837.28;;;8.69;100.00
64243;BME280;50573;51.512;5.386;2023-11-21T08:54:42;166887.56;;;8.88;100.00
64243;BME280;50573;51.512;5.386;2023-11-21T09:04:47;166929.94;;;9.04;100.00
64243;BME280;50573;51.512;5.386;2023-11-21T09:15:00;166977.59;;;9.22;100.00
64243;BME280;50573;51.512;5.386;2023-11-21T09:25:04;167035.84;;;9.44;100.00
64243;BME280;50573;51.512;5.386;2023-11-21T09:35:09;167083.53;;;9.62;100.00
64243;BME280;50573;51.512;5.386;2023-11-21T09:45:18;167129.88;;;9.79;100.00
64243;BME280;50573;51.512;5.386;2023-11-21T09:55:29;167210.75;;;10.10;100.00
64243;BME280;50573;51.512;5.386;2023-11-21T10:05:37;167324.72;;;10.53;100.00
64243;BME280;50573;51.512;5.386;2023-11-21T10:15:47;167486.44;;;11.14;100.00
64243;BME280;50573;51.512;5.386;2023-11-21T10:25:55;167539.47;;;11.35;100.00
64243;BME280;50573;51.512;5.386;2023-11-21T10:36:10;167528.84;;;11.31;100.00
64243;BME280;50573;51.512;5.386;2023-11-21T10:46:14;167538.16;;;11.34;100.00
64243;BME280;50573;51.512;5.386;2023-11-21T10:56:23;167482.47;;;11.13;100.00
64243;BME280;50573;51.512;5.386;2023-11-21T11:06:30;167473.16;;;11.09;100.00
64243;BME280;50573;51.512;5.386;2023-11-21T11:16:47;167490.41;;;11.16;100.00
64243;BME280;50573;51.512;5.386;2023-11-21T11:27:11;167462.59;;;11.05;100.00
64243;BME280;50573;51.512;5.386;2023-11-21T11:37:20;167522.25;;;11.28;100.00
64243;BME280;50573;51.512;5.386;2023-11-21T11:47:25;167505.00;;;11.22;100.00
64243;BME280;50573;51.512;5.386;2023-11-21T11:57:34;167485.09;;;11.14;100.00
64243;BME280;50573;51.512;5.386;2023-11-21T12:07:44;167455.94;;;11.03;100.00
64243;BME280;50573;51.512;5.386;2023-11-21T12:17:49;167469.19;;;11.08;100.00
64243;BME280;50573;51.512;5.386;2023-11-21T12:27:53;167481.13;;;11.12;100.00
64243;BME280;50573;51.512;5.386;2023-11-21T12:38:05;167531.50;;;11.32;100.00
64243;BME280;50573;51.512;5.386;2023-11-21T12:48:10;167482.47;;;11.13;100.00
64243;BME280;50573;51.512;5.386;2023-11-21T12:58:24;167413.53;;;10.87;100.00
64243;BME280;50573;51.512;5.386;2023-11-21T13:08:27;167444.00;;;10.98;100.00
64243;BME280;50573;51.512;5.386;2023-11-21T13:18:36;167442.66;;;10.98;100.00
64243;BME280;50573;51.512;5.386;2023-11-21T13:28:42;167418.84;;;10.89;100.00
64243;BME280;50573;51.512;5.386;2023-11-21T13:38:52;167361.81;;;10.67;100.00
64243;BME280;50573;51.512;5.386;2023-11-21T13:49:02;167340.63;;;10.59;100.00
64243;BME280;50573;51.512;5.386;2023-11-21T13:59:11;167376.41;;;10.73;100.00
64243;BME280;50573;51.512;5.386;2023-11-21T14:09:23;167398.91;;;10.81;100.00
64243;BME280;50573;51.512;5.386;2023-11-21T14:19:28;167397.63;;;10.81;100.00
64243;BME280;50573;51.512;5.386;2023-11-21T14:29:34;167388.34;;;10.77;100.00
64243;BME280;50573;51.512;5.386;2023-11-21T14:39:42;167409.53;;;10.85;100.00
64243;BME280;50573;51.512;5.386;2023-11-21T14:49:48;167428.13;;;10.92;100.00
64243;BME280;50573;51.512;5.386;2023-11-21T14:59:59;167389.69;;;10.78;100.00
64243;BME280;50573;51.512;5.386;2023-11-21T15:10:03;167337.97;;;10.58;100.00
64243;BME280;50573;51.512;5.386;2023-11-21T15:20:11;167290.28;;;10.40;100.00
64243;BME280;50573;51.512;5.386;2023-11-21T15:30:21;167239.94;;;10.21;100.00
64243;BME280;50573;51.512;5.386;2023-11-21T15:40:28;167218.69;;;10.13;100.00
64243;BME280;50573;51.512;5.386;2023-11-21T15:50:33;167226.69;;;10.16;100.00
64243;BME280;50573;51.512;5.386;2023-11-21T16:00:38;167230.66;;;10.18;100.00
64243;BME280;50573;51.512;5.386;2023-11-21T16:10:41;167216.06;;;10.12;100.00
64243;BME280;50573;51.512;5.386;2023-11-21T16:20:45;167181.56;;;9.99;100.00
64243;BME280;50573;51.512;5.386;2023-11-21T16:30:49;167121.94;;;9.76;100.00
64243;BME280;50573;51.512;5.386;2023-11-21T16:40:54;167079.56;;;9.60;100.00
64243;BME280;50573;51.512;5.386;2023-11-21T16:50:57;167042.50;;;9.46;100.00
64243;BME280;50573;51.512;5.386;2023-11-21T17:01:03;167019.97;;;9.38;100.00
64243;BME280;50573;51.512;5.386;2023-11-21T17:11:09;167022.59;;;9.39;100.00
64243;BME280;50573;51.512;5.386;2023-11-21T17:21:16;166953.75;;;9.13;100.00
64243;BME280;50573;51.512;5.386;2023-11-21T17:31:30;166928.59;;;9.03;100.00
64243;BME280;50573;51.512;5.386;2023-11-21T17:41:34;166908.75;;;8.96;100.00
64243;BME280;50573;51.512;5.386;2023-11-21T17:51:38;166894.16;;;8.90;100.00
64243;BME280;50573;51.512;5.386;2023-11-21T18:01:43;166825.31;;;8.64;100.00
64243;BME280;50573;51.512;5.386;2023-11-21T18:11:46;166810.78;;;8.59;100.00
64243;BME280;50573;51.512;5.386;2023-11-21T18:21:52;166776.38;;;8.46;100.00
64243;BME280;50573;51.512;5.386;2023-11-21T18:31:55;166679.69;;;8.09;100.00
64243;BME280;50573;51.512;5.386;2023-11-21T18:41:59;166618.88;;;7.86;100.00
64243;BME280;50573;51.512;5.386;2023-11-21T18:52:03;166521.00;;;7.49;100.00
64243;BME280;50573;51.512;5.386;2023-11-21T19:02:07;166458.81;;;7.25;100.00
64243;BME280;50573;51.512;5.386;2023-11-21T19:12:15;166411.22;;;7.07;100.00
64243;BME280;50573;51.512;5.386;2023-11-21T19:22:20;166345.13;;;6.82;100.00
64243;BME280;50573;51.512;5.386;2023-11-21T19:32:23;166302.84;;;6.66;100.00
64243;BME280;50573;51.512;5.386;2023-11-21T19:42:27;166285.66;;;6.59;100.00
64243;BME280;50573;51.512;5.386;2023-11-21T19:52:31;166286.94;;;6.60;100.00
64243;BME280;50573;51.512;5.386;2023-11-21T20:02:35;166286.94;;;6.60;100.00
64243;BME280;50573;51.512;5.386;2023-11-21T20:12:38;166263.16;;;6.51;100.00
64243;BME280;50573;51.512;5.386;2023-11-21T20:22:44;166195.78;;;6.25;100.00
64243;BME280;50573;51.512;5.386;2023-11-21T20:32:48;166154.78;;;6.10;100.00
64243;BME280;50573;51.512;5.386;2023-11-21T20:42:54;166099.31;;;5.89;100.00
64243;BME280;50573;51.512;5.386;2023-11-21T20:53:03;166084.81;;;5.83;100.00
64243;BME280;50573;51.512;5.386;2023-11-21T21:03:11;166066.22;;;5.76;100.00
64243;BME280;50573;51.512;5.386;2023-11-21T21:13:16;166042.47;;;5.67;100.00
64243;BME280;50573;51.512;5.386;2023-11-21T21:23:21;166012.09;;;5.55;100.00
64243;BME280;50573;51.512;5.386;2023-11-21T21:33:24;165977.75;;;5.42;100.00
64243;BME280;50573;51.512;5.386;2023-11-21T21:43:28;165955.28;;;5.34;100.00
64243;BME280;50573;51.512;5.386;2023-11-21T21:53:31;165922.28;;;5.21;100.00
64243;BME280;50573;51.512;5.386;2023-11-21T22:03:36;165914.38;;;5.18;100.00
64243;BME280;50573;51.512;5.386;2023-11-21T22:13:39;165898.50;;;5.12;100.00
64243;BME280;50573;51.512;5.386;2023-11-21T22:23:43;165881.31;;;5.06;100.00
64243;BME280;50573;51.512;5.386;2023-11-21T22:33:46;165858.91;;;4.97;100.00
64243;BME280;50573;51.512;5.386;2023-11-21T22:43:51;165845.72;;;4.92;100.00
64243;BME280;50573;51.512;5.386;2023-11-21T22:53:54;165817.97;;;4.82;100.00
64243;BME280;50573;51.512;5.386;2023-11-21T23:03:59;165808.72;;;4.78;100.00
64243;BME280;50573;51.512;5.386;2023-11-21T23:14:02;165778.41;;;4.67;100.00
64243;BME280;50573;51.512;5.386;2023-11-21T23:24:08;165757.28;;;4.59;100.00
64243;BME280;50573;51.512;5.386;2023-11-21T23:34:13;165734.84;;;4.50;100.00
64243;BME280;50573;51.512;5.386;2023-11-21T23:44:17;165724.25;;;4.46;100.00
64243;BME280;50573;51.512;5.386;2023-11-21T23:54:22;165696.56;;;4.36;100.00
